Time;durP1;ratioP1;P1;durP2;ratioP2;P2;SDS_P1;SDS_P2;PMS_P1;PMS_P2;Temp;Humidity;BMP_temperature;BMP_pressure;BME280_temperature;BME280_humidity;BME280_pressure;Samples;Min_cycle;Max_cycle;Signal;HPM_P1;HPM_P2
2022/07/31 00:01:23;;;;;;;6.90;4.13;;;;;;;;;;5069382;28;20048;-58
2022/07/31 00:03:49;;;;;;;8.60;4.37;;;;;;;;;;5049814;28;20119;-58
2022/07/31 00:06:17;;;;;;;8.70;4.83;;;;;;;;;;5049705;28;20045;-58
2022/07/31 00:08:43;;;;;;;9.27;4.47;;;;;;;;;;5049515;28;20037;-58
2022/07/31 00:11:10;;;;;;;11.83;5.87;;;;;;;;;;5049572;28;20048;-58
2022/07/31 00:13:36;;;;;;;8.90;4.67;;;;;;;;;;5049345;28;20051;-58
2022/07/31 00:16:02;;;;;;;7.87;4.43;;;;;;;;;;5049040;28;20041;-58
2022/07/31 00:18:28;;;;;;;7.10;4.03;;;;;;;;;;5049084;28;20049;-58
2022/07/31 00:20:54;;;;;;;6.30;4.47;;;;;;;;;;5049345;28;20423;-58
2022/07/31 00:23:20;;;;;;;7.00;4.83;;;;;;;;;;5049411;28;20048;-59
2022/07/31 00:25:46;;;;;;;8.60;4.40;;;;;;;;;;5048982;28;20048;-58
2022/07/31 00:28:12;;;;;;;5.70;4.63;;;;;;;;;;5048910;28;20056;-58
2022/07/31 00:30:38;;;;;;;8.03;4.10;;;;;;;;;;5048940;28;20120;-58
2022/07/31 00:33:05;;;;;;;4.90;4.10;;;;;;;;;;5052675;28;20037;-59
2022/07/31 00:35:31;;;;;;;9.93;4.83;;;;;;;;;;5049076;28;20049;-59
2022/07/31 00:37:57;;;;;;;9.30;5.20;;;;;;;;;;5047761;28;20392;-58
2022/07/31 00:40:23;;;;;;;6.70;5.17;;;;;;;;;;5049147;28;20147;-58
2022/07/31 00:42:49;;;;;;;8.27;4.50;;;;;;;;;;5048685;28;20048;-58
2022/07/31 00:45:15;;;;;;;8.30;4.57;;;;;;;;;;5048936;28;20056;-58
2022/07/31 00:47:42;;;;;;;8.67;4.83;;;;;;;;;;5048733;28;20407;-58
2022/07/31 00:50:08;;;;;;;8.60;4.73;;;;;;;;;;5048334;28;20045;-59
2022/07/31 00:52:34;;;;;;;7.63;4.73;;;;;;;;;;5048967;28;20049;-58
2022/07/31 00:55:01;;;;;;;5.57;4.80;;;;;;;;;;5048996;28;20434;-58
2022/07/31 00:57:27;;;;;;;11.13;4.40;;;;;;;;;;5048611;28;20045;-58
2022/07/31 00:59:53;;;;;;;6.17;4.40;;;;;;;;;;5048794;28;20136;-59
2022/07/31 01:02:19;;;;;;;6.67;4.33;;;;;;;;;;5049051;28;20135;-59
2022/07/31 01:04:45;;;;;;;6.53;4.83;;;;;;;;;;5048435;28;20045;-59
2022/07/31 01:07:11;;;;;;;7.23;4.37;;;;;;;;;;5048776;28;20127;-58
2022/07/31 01:09:37;;;;;;;9.60;4.40;;;;;;;;;;5048484;28;20459;-59
2022/07/31 01:12:07;;;;;;;8.77;5.20;;;;;;;;;;5048845;28;20376;-59
2022/07/31 01:14:38;;;;;;;7.93;4.70;;;;;;;;;;5049437;28;20088;-58
2022/07/31 01:17:05;;;;;;;6.57;4.30;;;;;;;;;;5048158;28;20500;-58
2022/07/31 01:19:33;;;;;;;6.30;4.60;;;;;;;;;;5048351;28;20064;-58
2022/07/31 01:22:18;;;;;;;6.17;4.80;;;;;;;;;;5048247;28;20064;-58
2022/07/31 01:24:55;;;;;;;6.03;4.57;;;;;;;;;;5048301;28;20080;-58
2022/07/31 01:27:38;;;;;;;6.50;4.33;;;;;;;;;;5048415;28;20041;-59
2022/07/31 01:30:04;;;;;;;4.82;4.18;;;;;;;;;;5047911;28;20052;-58
2022/07/31 01:32:37;;;;;;;6.33;4.30;;;;;;;;;;5047874;28;20037;-58
2022/07/31 01:35:09;;;;;;;7.80;4.13;;;;;;;;;;5048260;28;20127;-58
2022/07/31 01:37:39;;;;;;;11.43;4.30;;;;;;;;;;5048306;28;20037;-58
2022/07/31 01:40:09;;;;;;;9.33;4.33;;;;;;;;;;5048557;28;20361;-58
2022/07/31 01:42:37;;;;;;;6.10;4.40;;;;;;;;;;5047700;28;20514;-58
2022/07/31 01:45:05;;;;;;;4.73;4.03;;;;;;;;;;5047969;28;20150;-58
2022/07/31 01:47:32;;;;;;;6.80;3.63;;;;;;;;;;5048814;28;20041;-58
2022/07/31 01:50:00;;;;;;;5.70;4.40;;;;;;;;;;5052221;28;20052;-58
2022/07/31 01:52:28;;;;;;;4.83;3.63;;;;;;;;;;5052150;28;20037;-58
2022/07/31 01:54:55;;;;;;;8.10;4.70;;;;;;;;;;5051650;28;20053;-58
2022/07/31 01:57:23;;;;;;;8.57;4.20;;;;;;;;;;5051782;28;20041;-58
2022/07/31 01:59:50;;;;;;;7.93;4.43;;;;;;;;;;5051653;28;20138;-58
2022/07/31 02:02:17;;;;;;;10.63;4.73;;;;;;;;;;5052086;28;20049;-59
2022/07/31 02:04:45;;;;;;;6.03;3.80;;;;;;;;;;5051665;28;20052;-58
2022/07/31 02:07:13;;;;;;;8.43;4.23;;;;;;;;;;5051720;28;20059;-58
2022/07/31 02:09:40;;;;;;;6.03;4.13;;;;;;;;;;5069130;28;20114;-58
2022/07/31 02:12:07;;;;;;;6.03;4.33;;;;;;;;;;5071806;28;20399;-58
2022/07/31 02:14:33;;;;;;;6.53;4.13;;;;;;;;;;5071471;28;20514;-58
2022/07/31 02:17:00;;;;;;;7.40;4.40;;;;;;;;;;5071603;28;20045;-58
2022/07/31 02:19:27;;;;;;;7.03;4.43;;;;;;;;;;5071340;28;20132;-58
2022/07/31 02:21:53;;;;;;;7.60;4.07;;;;;;;;;;5070986;28;20049;-58
2022/07/31 02:24:19;;;;;;;5.33;4.37;;;;;;;;;;5054062;28;20049;-59
2022/07/31 02:26:46;;;;;;;7.37;4.40;;;;;;;;;;5051062;28;20056;-59
2022/07/31 02:29:13;;;;;;;6.63;4.73;;;;;;;;;;5051380;28;20418;-58
2022/07/31 02:31:41;;;;;;;6.37;4.57;;;;;;;;;;5051358;28;20045;-58
2022/07/31 02:34:07;;;;;;;7.20;5.03;;;;;;;;;;5051589;28;20045;-59
2022/07/31 02:36:33;;;;;;;11.40;4.57;;;;;;;;;;5051114;28;20533;-58
2022/07/31 02:38:59;;;;;;;9.77;4.63;;;;;;;;;;5057173;28;20482;-58
2022/07/31 02:41:26;;;;;;;6.27;4.30;;;;;;;;;;5071278;28;20051;-59
2022/07/31 02:43:52;;;;;;;7.97;4.50;;;;;;;;;;5070182;28;20060;-58
2022/07/31 02:46:18;;;;;;;9.83;4.97;;;;;;;;;;5071342;28;20460;-58
2022/07/31 02:48:45;;;;;;;8.97;4.57;;;;;;;;;;5070881;28;20552;-59
2022/07/31 02:51:11;;;;;;;7.33;4.10;;;;;;;;;;5070856;28;20067;-58
2022/07/31 02:53:37;;;;;;;9.27;4.87;;;;;;;;;;5061830;28;20587;-59
2022/07/31 02:56:04;;;;;;;6.00;4.33;;;;;;;;;;5050827;28;20049;-59
2022/07/31 02:58:30;;;;;;;7.00;5.10;;;;;;;;;;5050230;28;20707;-58
2022/07/31 03:01:04;;;;;;;9.53;4.50;;;;;;;;;;5049932;28;20090;-59
2022/07/31 03:03:30;;;;;;;8.20;4.70;;;;;;;;;;5050728;28;20041;-59
2022/07/31 03:05:56;;;;;;;8.10;4.53;;;;;;;;;;5050920;28;20495;-59
2022/07/31 03:08:22;;;;;;;9.73;4.43;;;;;;;;;;5050896;28;20586;-58
2022/07/31 03:10:49;;;;;;;6.10;4.30;;;;;;;;;;5050671;28;20033;-58
2022/07/31 03:13:16;;;;;;;8.93;4.40;;;;;;;;;;5050299;28;20123;-58
2022/07/31 03:15:43;;;;;;;7.03;4.80;;;;;;;;;;5050526;28;20052;-58
2022/07/31 03:18:10;;;;;;;13.23;4.70;;;;;;;;;;5050450;28;20178;-58
2022/07/31 03:20:37;;;;;;;7.87;4.77;;;;;;;;;;5049614;28;20073;-59
2022/07/31 03:23:03;;;;;;;6.70;4.60;;;;;;;;;;5050010;28;20102;-59
2022/07/31 03:25:29;;;;;;;8.20;4.50;;;;;;;;;;5050123;28;20052;-58
2022/07/31 03:27:55;;;;;;;8.80;4.70;;;;;;;;;;5049958;28;20041;-58
2022/07/31 03:30:23;;;;;;;10.27;4.73;;;;;;;;;;5050208;28;20064;-59
2022/07/31 03:32:51;;;;;;;12.00;5.03;;;;;;;;;;5049920;28;20051;-58
2022/07/31 03:35:17;;;;;;;10.03;4.70;;;;;;;;;;5050391;28;20464;-58
2022/07/31 03:37:43;;;;;;;8.83;4.53;;;;;;;;;;5060194;28;20062;-59
2022/07/31 03:40:10;;;;;;;9.73;4.27;;;;;;;;;;5070227;28;20056;-58
2022/07/31 03:42:36;;;;;;;7.57;4.67;;;;;;;;;;5069655;28;20049;-58
2022/07/31 03:45:02;;;;;;;5.77;4.67;;;;;;;;;;5068216;28;20067;-58
2022/07/31 03:47:29;;;;;;;10.43;4.97;;;;;;;;;;5069313;28;20056;-59
2022/07/31 03:49:55;;;;;;;6.10;4.27;;;;;;;;;;5052837;28;20052;-58
2022/07/31 03:52:21;;;;;;;5.30;4.47;;;;;;;;;;5049722;28;20053;-58
2022/07/31 03:54:47;;;;;;;6.27;4.57;;;;;;;;;;5049356;28;20183;-58
2022/07/31 03:57:13;;;;;;;6.30;4.47;;;;;;;;;;5049322;28;20438;-58
2022/07/31 03:59:40;;;;;;;8.10;4.70;;;;;;;;;;5048932;28;20418;-59
2022/07/31 04:02:06;;;;;;;7.13;4.80;;;;;;;;;;5049426;28;20044;-58
2022/07/31 04:04:33;;;;;;;10.60;4.97;;;;;;;;;;5065992;28;20106;-58
2022/07/31 04:06:59;;;;;;;9.33;4.57;;;;;;;;;;5069375;28;20041;-58
2022/07/31 04:09:25;;;;;;;6.50;4.43;;;;;;;;;;5069149;28;20491;-58
2022/07/31 04:11:51;;;;;;;10.53;4.43;;;;;;;;;;5068666;28;20185;-58
2022/07/31 04:14:17;;;;;;;8.13;4.50;;;;;;;;;;5069261;28;20100;-58
2022/07/31 04:16:43;;;;;;;7.40;5.10;;;;;;;;;;5063281;28;20045;-58
2022/07/31 04:19:09;;;;;;;8.03;4.33;;;;;;;;;;5049294;28;20545;-58
2022/07/31 04:21:35;;;;;;;8.73;4.57;;;;;;;;;;5048491;28;20059;-58
2022/07/31 04:24:01;;;;;;;7.17;4.40;;;;;;;;;;5049103;28;20430;-58
2022/07/31 04:26:28;;;;;;;8.30;4.17;;;;;;;;;;5048841;28;20056;-58
2022/07/31 04:28:54;;;;;;;6.07;4.80;;;;;;;;;;5048474;28;20458;-58
2022/07/31 04:31:20;;;;;;;7.97;4.07;;;;;;;;;;5048815;28;20099;-58
2022/07/31 04:33:46;;;;;;;8.17;5.10;;;;;;;;;;5048378;28;20202;-58
2022/07/31 04:36:12;;;;;;;12.93;4.37;;;;;;;;;;5048648;28;20587;-58
2022/07/31 04:38:38;;;;;;;6.47;3.70;;;;;;;;;;5048687;28;20087;-58
2022/07/31 04:41:04;;;;;;;7.20;4.20;;;;;;;;;;5048223;28;20041;-59
2022/07/31 04:43:30;;;;;;;7.13;4.50;;;;;;;;;;5048508;28;20047;-58
2022/07/31 04:45:56;;;;;;;7.40;4.37;;;;;;;;;;5048464;28;20044;-58
2022/07/31 04:48:22;;;;;;;7.40;4.70;;;;;;;;;;5048725;28;20132;-58
2022/07/31 04:50:49;;;;;;;7.93;4.00;;;;;;;;;;5048335;28;20106;-58
2022/07/31 04:53:15;;;;;;;7.00;4.80;;;;;;;;;;5047794;28;20029;-59
2022/07/31 04:55:41;;;;;;;8.47;4.10;;;;;;;;;;5050808;28;20380;-58
2022/07/31 04:58:07;;;;;;;8.87;4.97;;;;;;;;;;5058287;28;20047;-58
2022/07/31 05:00:33;;;;;;;9.33;4.73;;;;;;;;;;5056697;28;20055;-58
2022/07/31 05:02:59;;;;;;;7.00;4.07;;;;;;;;;;5058314;28;20041;-58
2022/07/31 05:05:25;;;;;;;7.33;4.07;;;;;;;;;;5056937;28;20044;-58
2022/07/31 05:07:51;;;;;;;6.37;4.73;;;;;;;;;;5057443;28;20098;-59
2022/07/31 05:13:02;;;;;;;8.00;4.03;;;;;;;;;;5056576;28;20057;-59
2022/07/31 05:15:28;;;;;;;7.13;4.83;;;;;;;;;;5057010;28;20449;-58
2022/07/31 05:17:54;;;;;;;7.97;4.70;;;;;;;;;;5052135;28;20511;-58
2022/07/31 05:20:20;;;;;;;6.23;4.80;;;;;;;;;;5048093;28;20045;-59
2022/07/31 05:22:46;;;;;;;7.53;4.20;;;;;;;;;;5049001;28;20044;-58
2022/07/31 05:25:12;;;;;;;9.10;4.17;;;;;;;;;;5051803;28;20052;-59
2022/07/31 05:27:38;;;;;;;6.93;4.37;;;;;;;;;;5052160;28;20041;-58
2022/07/31 05:30:06;;;;;;;6.30;4.63;;;;;;;;;;5051491;28;20115;-59
2022/07/31 05:32:33;;;;;;;8.07;4.47;;;;;;;;;;5051766;28;20053;-58
2022/07/31 05:34:59;;;;;;;6.70;4.03;;;;;;;;;;5052085;28;20048;-59
2022/07/31 05:37:25;;;;;;;6.93;4.53;;;;;;;;;;5051692;28;20044;-58
2022/07/31 05:39:51;;;;;;;7.70;4.60;;;;;;;;;;5051316;28;20132;-59
2022/07/31 05:42:17;;;;;;;11.20;5.10;;;;;;;;;;5051872;28;20415;-59
2022/07/31 05:44:43;;;;;;;7.27;4.17;;;;;;;;;;5051893;28;20056;-59
2022/07/31 05:47:09;;;;;;;7.27;4.17;;;;;;;;;;5059780;28;20131;-58
2022/07/31 05:49:35;;;;;;;7.33;4.70;;;;;;;;;;5071626;28;20048;-58
2022/07/31 05:52:01;;;;;;;7.47;4.73;;;;;;;;;;5071183;28;20045;-59
2022/07/31 05:54:27;;;;;;;6.03;4.70;;;;;;;;;;5071508;28;20095;-58
2022/07/31 05:56:53;;;;;;;4.87;4.17;;;;;;;;;;5071629;28;20094;-58
2022/07/31 05:59:19;;;;;;;7.30;4.50;;;;;;;;;;5071093;28;20441;-58
2022/07/31 06:01:45;;;;;;;7.93;4.17;;;;;;;;;;5064123;28;20049;-59
2022/07/31 06:04:11;;;;;;;5.20;3.73;;;;;;;;;;5050742;28;20045;-58
2022/07/31 06:06:37;;;;;;;9.50;4.10;;;;;;;;;;5050769;28;20962;-59
2022/07/31 06:09:03;;;;;;;7.50;4.50;;;;;;;;;;5051395;28;20049;-59
2022/07/31 06:11:29;;;;;;;5.73;4.43;;;;;;;;;;5051247;28;20083;-58
2022/07/31 06:13:55;;;;;;;4.70;3.83;;;;;;;;;;5050978;28;20586;-58
2022/07/31 06:16:21;;;;;;;9.10;5.03;;;;;;;;;;5056065;28;20124;-59
2022/07/31 06:18:47;;;;;;;6.97;4.40;;;;;;;;;;5070987;28;20059;-59
2022/07/31 06:21:13;;;;;;;6.67;4.77;;;;;;;;;;5070621;28;20551;-58
2022/07/31 06:23:39;;;;;;;7.60;4.03;;;;;;;;;;5071063;28;20049;-59
2022/07/31 06:26:05;;;;;;;9.47;4.80;;;;;;;;;;5053240;28;20103;-59
2022/07/31 06:28:31;;;;;;;8.27;4.70;;;;;;;;;;5050640;28;21074;-59
2022/07/31 06:30:57;;;;;;;8.33;4.73;;;;;;;;;;5050829;28;20037;-59
2022/07/31 06:33:23;;;;;;;7.73;4.50;;;;;;;;;;5050905;28;20041;-59
2022/07/31 06:35:49;;;;;;;9.97;4.50;;;;;;;;;;5049469;28;20102;-59
2022/07/31 06:38:16;;;;;;;8.33;4.97;;;;;;;;;;5050179;28;21106;-59
2022/07/31 06:40:42;;;;;;;9.83;4.50;;;;;;;;;;5050205;28;20057;-59
2022/07/31 06:43:08;;;;;;;8.63;4.67;;;;;;;;;;5050602;28;20406;-59
2022/07/31 06:45:33;;;;;;;7.57;5.37;;;;;;;;;;5050330;28;20056;-58
2022/07/31 06:48:00;;;;;;;10.10;4.70;;;;;;;;;;5049997;28;20049;-58
2022/07/31 06:50:26;;;;;;;7.67;4.73;;;;;;;;;;5049981;28;20127;-58
2022/07/31 06:52:52;;;;;;;7.20;4.57;;;;;;;;;;5050195;28;20056;-59
2022/07/31 06:55:18;;;;;;;6.00;4.67;;;;;;;;;;5050447;28;20045;-59
2022/07/31 06:57:44;;;;;;;10.97;5.47;;;;;;;;;;5050113;28;20510;-59
2022/07/31 07:00:10;;;;;;;8.57;5.47;;;;;;;;;;5050021;28;20048;-59
2022/07/31 07:02:36;;;;;;;6.87;5.10;;;;;;;;;;5049793;28;20045;-59
2022/07/31 07:05:02;;;;;;;9.60;5.97;;;;;;;;;;5050064;28;20102;-60
2022/07/31 07:07:28;;;;;;;10.33;6.37;;;;;;;;;;5050056;28;20094;-59
2022/07/31 07:09:54;;;;;;;8.57;5.80;;;;;;;;;;5050776;28;20048;-59
2022/07/31 07:12:20;;;;;;;9.37;6.13;;;;;;;;;;5049925;28;20052;-59
2022/07/31 07:14:46;;;;;;;9.90;5.50;;;;;;;;;;5050312;28;20037;-59
2022/07/31 07:17:12;;;;;;;9.17;6.07;;;;;;;;;;5049725;28;20037;-59
2022/07/31 07:19:40;;;;;;;11.23;6.43;;;;;;;;;;5049680;28;20045;-59
2022/07/31 07:22:06;;;;;;;10.10;5.73;;;;;;;;;;5049625;28;20053;-59
2022/07/31 07:24:32;;;;;;;8.53;6.17;;;;;;;;;;5048989;28;20127;-59
2022/07/31 07:26:58;;;;;;;7.00;5.60;;;;;;;;;;5049866;28;20044;-59
2022/07/31 07:29:24;;;;;;;12.07;5.93;;;;;;;;;;5049853;28;20040;-59
2022/07/31 07:31:50;;;;;;;9.63;6.30;;;;;;;;;;5049627;28;20048;-59
2022/07/31 07:34:16;;;;;;;8.90;6.60;;;;;;;;;;5049366;28;20156;-59
2022/07/31 07:36:42;;;;;;;10.90;6.23;;;;;;;;;;5049743;28;20167;-58
2022/07/31 07:39:08;;;;;;;10.03;6.20;;;;;;;;;;5054934;28;20046;-58
2022/07/31 07:41:34;;;;;;;7.83;6.23;;;;;;;;;;5069592;28;20052;-58
2022/07/31 07:44:00;;;;;;;10.57;5.87;;;;;;;;;;5069075;28;20202;-59
2022/07/31 07:46:26;;;;;;;11.33;6.17;;;;;;;;;;5068845;28;20041;-59
2022/07/31 07:48:53;;;;;;;8.47;5.70;;;;;;;;;;5068901;28;20052;-59
2022/07/31 07:51:19;;;;;;;8.27;6.60;;;;;;;;;;5069151;28;20418;-59
2022/07/31 07:53:45;;;;;;;11.23;6.17;;;;;;;;;;5051328;28;20045;-58
2022/07/31 07:56:11;;;;;;;10.17;6.50;;;;;;;;;;5049284;28;20051;-59
2022/07/31 07:58:38;;;;;;;12.17;7.00;;;;;;;;;;5048480;28;20041;-59
2022/07/31 08:01:04;;;;;;;12.87;6.53;;;;;;;;;;5049121;28;20052;-59
2022/07/31 08:03:30;;;;;;;13.13;6.87;;;;;;;;;;5048945;28;20055;-59
2022/07/31 08:05:57;;;;;;;8.93;6.50;;;;;;;;;;5048650;28;20048;-59
2022/07/31 08:08:23;;;;;;;7.67;6.80;;;;;;;;;;5048613;28;20569;-59
2022/07/31 08:10:49;;;;;;;11.90;6.47;;;;;;;;;;5049115;28;20052;-58
2022/07/31 08:13:15;;;;;;;11.70;6.43;;;;;;;;;;5048653;28;20041;-59
2022/07/31 08:15:41;;;;;;;9.43;6.50;;;;;;;;;;5052340;28;20036;-59
2022/07/31 08:18:07;;;;;;;10.67;6.57;;;;;;;;;;5048889;28;20136;-58
2022/07/31 08:20:33;;;;;;;10.13;5.97;;;;;;;;;;5048112;28;20191;-59
2022/07/31 08:22:59;;;;;;;8.10;5.43;;;;;;;;;;5048732;28;20106;-59
2022/07/31 08:25:25;;;;;;;9.30;5.13;;;;;;;;;;5048914;28;20975;-59
2022/07/31 08:27:51;;;;;;;8.17;5.60;;;;;;;;;;5047918;28;20621;-59
2022/07/31 08:30:17;;;;;;;8.07;6.43;;;;;;;;;;5054978;28;20074;-59
2022/07/31 08:32:43;;;;;;;9.33;5.33;;;;;;;;;;5067912;28;20055;-59
2022/07/31 08:35:09;;;;;;;6.90;5.70;;;;;;;;;;5068572;28;20049;-59
2022/07/31 08:37:35;;;;;;;7.87;5.87;;;;;;;;;;5068306;28;20498;-59
2022/07/31 08:40:01;;;;;;;10.03;5.87;;;;;;;;;;5068428;28;20040;-59
2022/07/31 08:42:27;;;;;;;9.70;6.13;;;;;;;;;;5068183;28;20045;-58
2022/07/31 08:44:53;;;;;;;7.40;5.83;;;;;;;;;;5067850;28;20052;-59
2022/07/31 08:47:21;;;;;;;12.40;6.17;;;;;;;;;;5066744;28;20063;-59
2022/07/31 08:49:49;;;;;;;10.47;6.67;;;;;;;;;;5049890;28;20044;-59
2022/07/31 08:52:19;;;;;;;8.63;7.40;;;;;;;;;;5048208;28;20045;-59
2022/07/31 08:54:46;;;;;;;10.23;7.27;;;;;;;;;;5048066;28;20098;-59
2022/07/31 08:57:12;;;;;;;10.10;7.30;;;;;;;;;;5047382;28;20044;-59
2022/07/31 08:59:41;;;;;;;10.30;7.40;;;;;;;;;;5047608;28;20598;-59
2022/07/31 09:02:12;;;;;;;11.17;7.90;;;;;;;;;;5048202;28;20674;-59
2022/07/31 09:04:38;;;;;;;12.33;7.77;;;;;;;;;;5048023;28;20037;-59
2022/07/31 09:07:04;;;;;;;9.30;7.63;;;;;;;;;;5050523;28;20454;-60
2022/07/31 09:09:30;;;;;;;13.00;8.30;;;;;;;;;;5052935;28;20562;-60
2022/07/31 09:11:57;;;;;;;13.27;7.40;;;;;;;;;;5057335;28;20047;-60
2022/07/31 09:14:33;;;;;;;8.33;7.53;;;;;;;;;;5061727;28;20127;-60
2022/07/31 09:17:00;;;;;;;10.63;7.27;;;;;;;;;;5047522;28;20045;-61
2022/07/31 09:19:35;;;;;;;17.23;8.03;;;;;;;;;;5047641;28;20136;-60
2022/07/31 09:22:02;;;;;;;10.47;6.93;;;;;;;;;;5047562;28;20491;-60
2022/07/31 09:24:29;;;;;;;12.10;8.57;;;;;;;;;;5048092;28;20114;-60
2022/07/31 09:27:02;;;;;;;11.33;8.00;;;;;;;;;;5047723;28;20569;-60
2022/07/31 09:29:35;;;;;;;9.07;6.60;;;;;;;;;;5047911;28;20102;-60
2022/07/31 09:32:14;;;;;;;11.73;8.60;;;;;;;;;;5047815;28;20064;-61
2022/07/31 09:34:41;;;;;;;14.47;8.80;;;;;;;;;;5047831;28;20805;-60
2022/07/31 09:37:10;;;;;;;19.20;11.63;;;;;;;;;;5048295;28;20045;-61
2022/07/31 09:39:37;;;;;;;18.00;9.80;;;;;;;;;;5048005;28;20056;-59
2022/07/31 09:42:04;;;;;;;17.23;11.03;;;;;;;;;;5051427;28;20055;-59
2022/07/31 09:44:40;;;;;;;12.53;10.67;;;;;;;;;;5067773;28;20053;-59
2022/07/31 09:47:06;;;;;;;17.77;11.57;;;;;;;;;;5067267;28;20047;-59
2022/07/31 09:49:33;;;;;;;19.33;13.30;;;;;;;;;;5068350;28;20053;-58
2022/07/31 09:52:00;;;;;;;19.20;11.90;;;;;;;;;;5067701;28;20087;-58
2022/07/31 09:54:27;;;;;;;15.90;12.57;;;;;;;;;;5059770;28;20037;-59
2022/07/31 09:56:53;;;;;;;16.00;12.30;;;;;;;;;;5055762;28;20045;-59
2022/07/31 09:59:19;;;;;;;15.57;12.67;;;;;;;;;;5056726;28;20047;-60
2022/07/31 10:01:50;;;;;;;19.93;13.93;;;;;;;;;;5066811;28;20462;-60
2022/07/31 10:04:17;;;;;;;17.67;13.67;;;;;;;;;;5067703;28;20041;-60
2022/07/31 10:06:46;;;;;;;12.27;10.77;;;;;;;;;;5068027;28;20036;-60
2022/07/31 10:09:12;;;;;;;12.00;10.70;;;;;;;;;;5060670;28;20086;-60
2022/07/31 10:11:39;;;;;;;15.10;11.97;;;;;;;;;;5059222;28;20056;-60
2022/07/31 10:14:09;;;;;;;13.00;10.97;;;;;;;;;;5061533;28;20052;-60
2022/07/31 10:16:36;;;;;;;15.17;10.97;;;;;;;;;;5053028;28;20080;-60
2022/07/31 10:19:02;;;;;;;16.77;11.47;;;;;;;;;;5051690;28;20053;-60
2022/07/31 10:21:37;;;;;;;17.63;12.10;;;;;;;;;;5050790;28;20049;-61
2022/07/31 10:24:04;;;;;;;14.70;10.47;;;;;;;;;;5050461;28;20449;-60
2022/07/31 10:26:31;;;;;;;12.93;10.83;;;;;;;;;;5051041;28;20041;-60
2022/07/31 10:28:58;;;;;;;12.50;9.87;;;;;;;;;;5051238;28;20084;-60
2022/07/31 10:31:24;;;;;;;15.07;10.50;;;;;;;;;;5050877;28;20120;-60
2022/07/31 10:33:51;;;;;;;13.60;10.23;;;;;;;;;;5050546;28;20056;-60
2022/07/31 10:36:21;;;;;;;13.03;9.77;;;;;;;;;;5051370;28;20183;-60
2022/07/31 10:38:54;;;;;;;13.20;10.63;;;;;;;;;;5051880;28;20080;-60
2022/07/31 10:41:32;;;;;;;15.75;10.40;;;;;;;;;;5050684;28;20052;-60
2022/07/31 10:44:18;;;;;;;13.73;10.03;;;;;;;;;;5051030;28;20060;-60
2022/07/31 10:46:45;;;;;;;14.30;10.00;;;;;;;;;;5051060;28;20128;-60
2022/07/31 10:49:11;;;;;;;13.53;10.23;;;;;;;;;;5070882;28;20048;-60
2022/07/31 10:51:47;;;;;;;13.70;9.80;;;;;;;;;;5068867;28;20036;-61
2022/07/31 10:54:14;;;;;;;12.60;9.90;;;;;;;;;;5069928;28;20044;-61
2022/07/31 10:56:44;;;;;;;11.07;9.33;;;;;;;;;;5070475;28;20052;-60
2022/07/31 10:59:11;;;;;;;12.67;10.77;;;;;;;;;;5070327;28;20051;-61
2022/07/31 11:01:50;;;;;;;14.53;10.73;;;;;;;;;;5055584;28;20490;-60
2022/07/31 11:04:26;;;;;;;11.00;8.50;;;;;;;;;;5050622;28;20855;-60
2022/07/31 11:06:52;;;;;;;10.07;9.07;;;;;;;;;;5049995;28;20057;-60
2022/07/31 11:09:22;;;;;;;12.17;10.60;;;;;;;;;;5050529;28;20186;-61
2022/07/31 11:11:48;;;;;;;17.33;12.60;;;;;;;;;;5050100;28;20053;-61
2022/07/31 11:14:14;;;;;;;19.57;13.80;;;;;;;;;;5049935;28;20403;-61
2022/07/31 11:16:50;;;;;;;24.57;17.63;;;;;;;;;;5050446;28;20057;-62
2022/07/31 11:19:16;;;;;;;26.17;17.17;;;;;;;;;;5049611;28;20147;-61
2022/07/31 11:21:42;;;;;;;37.03;22.93;;;;;;;;;;5049264;28;20053;-61
2022/07/31 11:24:15;;;;;;;32.40;21.00;;;;;;;;;;5050079;28;20530;-61
2022/07/31 11:26:51;;;;;;;32.28;22.08;;;;;;;;;;5050065;28;20041;-62
2022/07/31 11:29:26;;;;;;;42.20;26.67;;;;;;;;;;5050386;28;20037;-61
2022/07/31 11:31:52;;;;;;;60.83;32.07;;;;;;;;;;5049777;28;20053;-62
2022/07/31 11:34:18;;;;;;;53.43;29.87;;;;;;;;;;5050189;28;20084;-62
2022/07/31 11:36:44;;;;;;;37.50;27.63;;;;;;;;;;5048629;28;20049;-62
2022/07/31 11:39:14;;;;;;;52.37;31.73;;;;;;;;;;5049762;28;20040;-61
2022/07/31 11:41:40;;;;;;;57.97;33.57;;;;;;;;;;5048211;28;20051;-61
2022/07/31 11:44:06;;;;;;;70.70;37.17;;;;;;;;;;5056449;28;20080;-61
2022/07/31 11:46:33;;;;;;;53.90;33.77;;;;;;;;;;5069387;28;20142;-61
2022/07/31 11:49:00;;;;;;;68.10;37.50;;;;;;;;;;5069935;28;20040;-61
2022/07/31 11:51:26;;;;;;;69.67;38.90;;;;;;;;;;5069676;28;20040;-61
2022/07/31 11:53:54;;;;;;;64.17;38.17;;;;;;;;;;5069250;28;20505;-61
2022/07/31 11:56:20;;;;;;;47.83;31.83;;;;;;;;;;5069143;28;20441;-62
2022/07/31 11:58:50;;;;;;;59.50;35.90;;;;;;;;;;5060584;28;20091;-62
2022/07/31 12:01:17;;;;;;;60.60;35.20;;;;;;;;;;5049480;28;20045;-62
2022/07/31 12:03:43;;;;;;;63.73;36.77;;;;;;;;;;5048978;28;20687;-62
2022/07/31 12:06:10;;;;;;;55.33;34.30;;;;;;;;;;5049305;28;20052;-61
2022/07/31 12:08:37;;;;;;;72.73;40.43;;;;;;;;;;5048764;28;20052;-61
2022/07/31 12:11:04;;;;;;;82.63;43.30;;;;;;;;;;5049444;28;20047;-61
2022/07/31 12:13:31;;;;;;;51.70;33.63;;;;;;;;;;5056851;28;20056;-61
2022/07/31 12:15:57;;;;;;;59.47;35.43;;;;;;;;;;5069068;28;20487;-62
2022/07/31 12:18:23;;;;;;;59.63;34.97;;;;;;;;;;5067654;28;20044;-61
2022/07/31 12:20:54;;;;;;;59.47;37.67;;;;;;;;;;5068915;28;20799;-62
2022/07/31 12:23:20;;;;;;;69.63;40.93;;;;;;;;;;5068756;28;20136;-62
2022/07/31 12:25:46;;;;;;;50.43;34.03;;;;;;;;;;5068789;28;20094;-62
2022/07/31 12:28:16;;;;;;;76.67;42.03;;;;;;;;;;5059761;28;20526;-62
2022/07/31 12:30:42;;;;;;;73.40;41.83;;;;;;;;;;5048877;28;20048;-62
2022/07/31 12:33:09;;;;;;;51.53;35.00;;;;;;;;;;5048720;28;20045;-61
2022/07/31 12:35:44;;;;;;;53.83;36.20;;;;;;;;;;5048333;28;20120;-63
2022/07/31 12:38:10;;;;;;;49.73;35.90;;;;;;;;;;5050357;28;20569;-62
2022/07/31 12:40:36;;;;;;;51.30;35.13;;;;;;;;;;5068586;28;20045;-62
2022/07/31 12:43:02;;;;;;;65.67;39.83;;;;;;;;;;5067170;28;20059;-62
2022/07/31 12:45:35;;;;;;;64.90;41.50;;;;;;;;;;5057943;28;20159;-62
2022/07/31 12:48:02;;;;;;;90.93;48.87;;;;;;;;;;5055739;28;20044;-63
2022/07/31 12:50:29;;;;;;;77.07;45.30;;;;;;;;;;5057224;28;20057;-62
2022/07/31 12:52:57;;;;;;;85.93;46.13;;;;;;;;;;5055788;28;20044;-63
2022/07/31 12:55:23;;;;;;;80.10;44.77;;;;;;;;;;5055941;28;20040;-65
2022/07/31 12:57:49;;;;;;;83.23;44.40;;;;;;;;;;5057755;28;20449;-63
2022/07/31 13:00:17;;;;;;;83.97;44.70;;;;;;;;;;5057829;28;20126;-64
2022/07/31 13:02:43;;;;;;;67.40;39.13;;;;;;;;;;5058519;28;20045;-63
2022/07/31 13:05:09;;;;;;;95.47;47.63;;;;;;;;;;5058472;28;20423;-63
2022/07/31 13:07:35;;;;;;;79.80;44.27;;;;;;;;;;5057341;28;20040;-63
2022/07/31 13:10:01;;;;;;;75.00;41.37;;;;;;;;;;5058728;28;20044;-63
2022/07/31 13:12:27;;;;;;;98.80;46.57;;;;;;;;;;5055755;28;20126;-62
2022/07/31 13:14:54;;;;;;;107.27;49.83;;;;;;;;;;5056649;28;20076;-63
2022/07/31 13:17:20;;;;;;;91.00;46.07;;;;;;;;;;5058757;28;20058;-62
2022/07/31 13:19:46;;;;;;;74.77;42.00;;;;;;;;;;5055523;28;20043;-63
2022/07/31 13:22:12;;;;;;;78.13;43.20;;;;;;;;;;5054966;28;20045;-63
2022/07/31 13:24:38;;;;;;;85.07;44.23;;;;;;;;;;5057077;28;20040;-63
2022/07/31 13:27:04;;;;;;;66.93;33.97;;;;;;;;;;5063974;28;20498;-64
2022/07/31 13:29:30;;;;;;;114.23;50.90;;;;;;;;;;5068901;28;20540;-64
2022/07/31 13:31:56;;;;;;;125.60;52.70;;;;;;;;;;5068275;28;20170;-63
2022/07/31 13:34:22;;;;;;;66.27;34.47;;;;;;;;;;5068611;28;20045;-63
2022/07/31 13:36:48;;;;;;;45.37;28.50;;;;;;;;;;5068415;28;20051;-62
2022/07/31 13:39:14;;;;;;;47.30;28.40;;;;;;;;;;5068209;28;20048;-63
2022/07/31 13:41:40;;;;;;;67.50;31.80;;;;;;;;;;5066542;28;20056;-63
2022/07/31 13:44:06;;;;;;;87.20;37.63;;;;;;;;;;5069892;28;20052;-62
2022/07/31 13:46:32;;;;;;;75.90;33.70;;;;;;;;;;5072023;28;20139;-63
2022/07/31 13:48:59;;;;;;;37.97;23.67;;;;;;;;;;5072144;28;20045;-64
2022/07/31 13:51:25;;;;;;;36.33;23.63;;;;;;;;;;5072258;28;20080;-62
2022/07/31 13:53:51;;;;;;;60.47;28.50;;;;;;;;;;5072145;28;20049;-63
2022/07/31 13:56:18;;;;;;;44.87;25.53;;;;;;;;;;5071292;28;20045;-63
2022/07/31 13:58:44;;;;;;;57.17;28.13;;;;;;;;;;5072203;28;20037;-63
2022/07/31 14:01:10;;;;;;;43.53;25.47;;;;;;;;;;5072292;28;20123;-63
2022/07/31 14:03:37;;;;;;;62.53;29.30;;;;;;;;;;5070864;28;20052;-63
2022/07/31 14:06:03;;;;;;;61.27;27.73;;;;;;;;;;5071849;28;20402;-63
2022/07/31 14:08:29;;;;;;;31.27;20.03;;;;;;;;;;5071000;28;20051;-64
2022/07/31 14:10:56;;;;;;;41.03;21.97;;;;;;;;;;5071860;28;20041;-63
2022/07/31 14:13:22;;;;;;;58.17;25.13;;;;;;;;;;5071699;28;20056;-63
2022/07/31 14:15:48;;;;;;;32.60;19.50;;;;;;;;;;5071509;28;20049;-63
2022/07/31 14:18:14;;;;;;;48.50;22.53;;;;;;;;;;5070015;28;20109;-63
2022/07/31 14:20:40;;;;;;;40.90;20.87;;;;;;;;;;5071460;28;20418;-62
2022/07/31 14:23:07;;;;;;;34.60;18.90;;;;;;;;;;5070865;28;20056;-62
2022/07/31 14:25:35;;;;;;;21.70;14.37;;;;;;;;;;5071472;28;20052;-62
2022/07/31 14:28:01;;;;;;;30.40;17.60;;;;;;;;;;5071771;28;20203;-63
2022/07/31 14:30:27;;;;;;;32.30;16.13;;;;;;;;;;5071668;28;20048;-62
2022/07/31 14:32:53;;;;;;;18.37;11.73;;;;;;;;;;5071124;28;20052;-62
2022/07/31 14:35:20;;;;;;;19.70;13.70;;;;;;;;;;5070997;28;20055;-62